sensor_id;sensor_type;location;lat;lon;timestamp;P1;durP1;ratioP1;P2;durP2;ratioP2
3567;SDS011;1798;48.486;9.232;2023-01-05T00:00:50;3.00;;;1.90;;
3567;SDS011;1798;48.486;9.232;2023-01-05T00:03:17;3.40;;;2.30;;
3567;SDS011;1798;48.486;9.232;2023-01-05T00:05:44;3.30;;;2.27;;
3567;SDS011;1798;48.486;9.232;2023-01-05T00:08:11;6.53;;;2.27;;
3567;SDS011;1798;48.486;9.232;2023-01-05T00:10:38;3.30;;;2.30;;
3567;SDS011;1798;48.486;9.232;2023-01-05T00:13:22;3.30;;;2.23;;
3567;SDS011;1798;48.486;9.232;2023-01-05T00:16:09;3.30;;;2.07;;
3567;SDS011;1798;48.486;9.232;2023-01-05T00:18:54;4.00;;;2.37;;
3567;SDS011;1798;48.486;9.232;2023-01-05T00:21:38;3.13;;;1.80;;
3567;SDS011;1798;48.486;9.232;2023-01-05T00:24:23;3.37;;;2.23;;
3567;SDS011;1798;48.486;9.232;2023-01-05T00:26:49;4.07;;;2.07;;
3567;SDS011;1798;48.486;9.232;2023-01-05T00:29:16;4.67;;;2.17;;
3567;SDS011;1798;48.486;9.232;2023-01-05T00:31:44;3.90;;;2.40;;
3567;SDS011;1798;48.486;9.232;2023-01-05T00:34:11;4.07;;;2.47;;
3567;SDS011;1798;48.486;9.232;2023-01-05T00:36:38;4.17;;;2.30;;
3567;SDS011;1798;48.486;9.232;2023-01-05T00:39:05;3.47;;;2.20;;
3567;SDS011;1798;48.486;9.232;2023-01-05T00:41:32;3.37;;;2.10;;
3567;SDS011;1798;48.486;9.232;2023-01-05T00:43:59;2.90;;;1.80;;
3567;SDS011;1798;48.486;9.232;2023-01-05T00:46:26;3.27;;;2.03;;
3567;SDS011;1798;48.486;9.232;2023-01-05T00:48:54;3.70;;;2.30;;
3567;SDS011;1798;48.486;9.232;2023-01-05T00:51:21;3.30;;;1.90;;
3567;SDS011;1798;48.486;9.232;2023-01-05T00:53:47;3.10;;;1.97;;
3567;SDS011;1798;48.486;9.232;2023-01-05T00:56:14;3.77;;;2.20;;
3567;SDS011;1798;48.486;9.232;2023-01-05T00:58:41;3.67;;;2.10;;
3567;SDS011;1798;48.486;9.232;2023-01-05T01:01:08;3.60;;;2.17;;
3567;SDS011;1798;48.486;9.232;2023-01-05T01:03:35;3.37;;;1.97;;
3567;SDS011;1798;48.486;9.232;2023-01-05T01:06:04;3.90;;;2.20;;
3567;SDS011;1798;48.486;9.232;2023-01-05T01:08:31;3.57;;;2.23;;
3567;SDS011;1798;48.486;9.232;2023-01-05T01:11:01;3.50;;;2.30;;
3567;SDS011;1798;48.486;9.232;2023-01-05T01:13:29;3.50;;;2.10;;
3567;SDS011;1798;48.486;9.232;2023-01-05T01:15:56;4.77;;;2.30;;
3567;SDS011;1798;48.486;9.232;2023-01-05T01:18:23;3.20;;;1.97;;
3567;SDS011;1798;48.486;9.232;2023-01-05T01:20:50;3.70;;;2.00;;
3567;SDS011;1798;48.486;9.232;2023-01-05T01:23:18;3.10;;;2.00;;
3567;SDS011;1798;48.486;9.232;2023-01-05T01:25:45;3.60;;;2.53;;
3567;SDS011;1798;48.486;9.232;2023-01-05T01:28:11;3.30;;;2.20;;
3567;SDS011;1798;48.486;9.232;2023-01-05T01:30:38;2.93;;;1.80;;
3567;SDS011;1798;48.486;9.232;2023-01-05T01:33:05;3.73;;;2.47;;
3567;SDS011;1798;48.486;9.232;2023-01-05T01:35:32;3.63;;;2.30;;
3567;SDS011;1798;48.486;9.232;2023-01-05T01:37:59;3.90;;;2.40;;
3567;SDS011;1798;48.486;9.232;2023-01-05T01:40:27;3.50;;;2.20;;
3567;SDS011;1798;48.486;9.232;2023-01-05T01:42:54;3.80;;;2.13;;
3567;SDS011;1798;48.486;9.232;2023-01-05T01:45:21;3.17;;;2.07;;
3567;SDS011;1798;48.486;9.232;2023-01-05T01:47:50;3.60;;;2.30;;
3567;SDS011;1798;48.486;9.232;2023-01-05T01:50:21;3.47;;;1.97;;
3567;SDS011;1798;48.486;9.232;2023-01-05T01:52:50;5.93;;;2.17;;
3567;SDS011;1798;48.486;9.232;2023-01-05T01:55:18;3.20;;;2.00;;
3567;SDS011;1798;48.486;9.232;2023-01-05T01:57:46;3.20;;;2.07;;
3567;SDS011;1798;48.486;9.232;2023-01-05T02:00:14;4.37;;;2.40;;
3567;SDS011;1798;48.486;9.232;2023-01-05T02:02:41;5.57;;;2.13;;
3567;SDS011;1798;48.486;9.232;2023-01-05T02:05:09;3.27;;;2.23;;
3567;SDS011;1798;48.486;9.232;2023-01-05T02:07:38;3.60;;;2.00;;
3567;SDS011;1798;48.486;9.232;2023-01-05T02:10:09;3.10;;;1.87;;
3567;SDS011;1798;48.486;9.232;2023-01-05T02:12:37;3.30;;;2.30;;
3567;SDS011;1798;48.486;9.232;2023-01-05T02:15:13;3.50;;;2.30;;
3567;SDS011;1798;48.486;9.232;2023-01-05T02:17:48;3.00;;;1.83;;
3567;SDS011;1798;48.486;9.232;2023-01-05T02:20:30;3.47;;;2.23;;
3567;SDS011;1798;48.486;9.232;2023-01-05T02:29:19;3.17;;;2.10;;
3567;SDS011;1798;48.486;9.232;2023-01-05T02:31:58;4.10;;;2.50;;
3567;SDS011;1798;48.486;9.232;2023-01-05T02:34:28;5.10;;;2.23;;
3567;SDS011;1798;48.486;9.232;2023-01-05T02:36:59;3.20;;;2.13;;
3567;SDS011;1798;48.486;9.232;2023-01-05T02:39:32;3.47;;;2.40;;
3567;SDS011;1798;48.486;9.232;2023-01-05T02:42:02;6.23;;;2.10;;
3567;SDS011;1798;48.486;9.232;2023-01-05T02:44:31;3.03;;;2.00;;
3567;SDS011;1798;48.486;9.232;2023-01-05T02:47:00;3.60;;;2.17;;
3567;SDS011;1798;48.486;9.232;2023-01-05T02:49:29;4.17;;;3.00;;
3567;SDS011;1798;48.486;9.232;2023-01-05T02:51:57;3.57;;;2.30;;
3567;SDS011;1798;48.486;9.232;2023-01-05T02:54:26;3.03;;;1.97;;
3567;SDS011;1798;48.486;9.232;2023-01-05T02:56:56;3.20;;;1.80;;
3567;SDS011;1798;48.486;9.232;2023-01-05T02:59:27;4.03;;;2.10;;
3567;SDS011;1798;48.486;9.232;2023-01-05T03:01:55;3.20;;;1.80;;
3567;SDS011;1798;48.486;9.232;2023-01-05T03:04:25;3.80;;;2.13;;
3567;SDS011;1798;48.486;9.232;2023-01-05T03:06:56;3.60;;;2.47;;
3567;SDS011;1798;48.486;9.232;2023-01-05T03:09:26;3.23;;;2.10;;
3567;SDS011;1798;48.486;9.232;2023-01-05T03:11:56;6.80;;;2.70;;
3567;SDS011;1798;48.486;9.232;2023-01-05T03:14:41;3.27;;;2.10;;
3567;SDS011;1798;48.486;9.232;2023-01-05T03:17:12;4.80;;;2.43;;
3567;SDS011;1798;48.486;9.232;2023-01-05T03:19:42;3.10;;;1.90;;
3567;SDS011;1798;48.486;9.232;2023-01-05T03:22:12;4.10;;;2.23;;
3567;SDS011;1798;48.486;9.232;2023-01-05T03:24:59;3.57;;;2.07;;
3567;SDS011;1798;48.486;9.232;2023-01-05T03:27:43;3.10;;;2.00;;
3567;SDS011;1798;48.486;9.232;2023-01-05T03:30:31;3.27;;;2.27;;
3567;SDS011;1798;48.486;9.232;2023-01-05T03:33:20;3.50;;;2.40;;
3567;SDS011;1798;48.486;9.232;2023-01-05T03:36:10;3.83;;;2.10;;
3567;SDS011;1798;48.486;9.232;2023-01-05T03:38:39;4.40;;;2.40;;
3567;SDS011;1798;48.486;9.232;2023-01-05T03:41:08;3.47;;;2.10;;
3567;SDS011;1798;48.486;9.232;2023-01-05T03:43:35;3.40;;;2.23;;
3567;SDS011;1798;48.486;9.232;2023-01-05T03:46:07;3.73;;;2.07;;
3567;SDS011;1798;48.486;9.232;2023-01-05T03:48:35;3.00;;;1.97;;
3567;SDS011;1798;48.486;9.232;2023-01-05T03:51:02;3.00;;;1.90;;
3567;SDS011;1798;48.486;9.232;2023-01-05T03:53:31;3.37;;;2.10;;
3567;SDS011;1798;48.486;9.232;2023-01-05T03:55:57;3.20;;;2.20;;
3567;SDS011;1798;48.486;9.232;2023-01-05T03:58:24;3.40;;;2.10;;
3567;SDS011;1798;48.486;9.232;2023-01-05T04:00:51;6.30;;;2.60;;
3567;SDS011;1798;48.486;9.232;2023-01-05T04:03:18;3.30;;;2.00;;
3567;SDS011;1798;48.486;9.232;2023-01-05T04:05:45;2.93;;;1.80;;
3567;SDS011;1798;48.486;9.232;2023-01-05T04:08:11;3.27;;;1.93;;
3567;SDS011;1798;48.486;9.232;2023-01-05T04:10:40;3.30;;;2.27;;
3567;SDS011;1798;48.486;9.232;2023-01-05T04:13:06;3.23;;;2.17;;
3567;SDS011;1798;48.486;9.232;2023-01-05T04:15:33;2.70;;;1.50;;
3567;SDS011;1798;48.486;9.232;2023-01-05T04:18:00;3.47;;;2.00;;
3567;SDS011;1798;48.486;9.232;2023-01-05T04:20:27;3.20;;;2.10;;
3567;SDS011;1798;48.486;9.232;2023-01-05T04:22:53;2.93;;;1.77;;
3567;SDS011;1798;48.486;9.232;2023-01-05T04:25:20;3.30;;;2.30;;
3567;SDS011;1798;48.486;9.232;2023-01-05T04:27:48;3.20;;;2.10;;
3567;SDS011;1798;48.486;9.232;2023-01-05T04:30:15;3.63;;;1.83;;
3567;SDS011;1798;48.486;9.232;2023-01-05T04:32:42;4.57;;;2.10;;
3567;SDS011;1798;48.486;9.232;2023-01-05T04:35:08;4.00;;;2.30;;
3567;SDS011;1798;48.486;9.232;2023-01-05T04:37:35;3.10;;;1.97;;
3567;SDS011;1798;48.486;9.232;2023-01-05T04:40:02;3.17;;;2.10;;
3567;SDS011;1798;48.486;9.232;2023-01-05T04:42:30;3.47;;;2.13;;
3567;SDS011;1798;48.486;9.232;2023-01-05T04:44:58;4.63;;;2.03;;
3567;SDS011;1798;48.486;9.232;2023-01-05T04:47:25;9.90;;;2.20;;
3567;SDS011;1798;48.486;9.232;2023-01-05T04:49:52;3.10;;;1.60;;
3567;SDS011;1798;48.486;9.232;2023-01-05T04:52:18;3.57;;;2.37;;
3567;SDS011;1798;48.486;9.232;2023-01-05T04:54:45;3.47;;;2.03;;
3567;SDS011;1798;48.486;9.232;2023-01-05T04:57:12;3.30;;;2.10;;
3567;SDS011;1798;48.486;9.232;2023-01-05T04:59:39;3.10;;;2.00;;
3567;SDS011;1798;48.486;9.232;2023-01-05T05:02:07;6.60;;;1.97;;
3567;SDS011;1798;48.486;9.232;2023-01-05T05:04:34;2.80;;;1.50;;
3567;SDS011;1798;48.486;9.232;2023-01-05T05:07:01;3.40;;;2.20;;
3567;SDS011;1798;48.486;9.232;2023-01-05T05:09:27;3.43;;;2.23;;
3567;SDS011;1798;48.486;9.232;2023-01-05T05:11:54;3.10;;;2.10;;
3567;SDS011;1798;48.486;9.232;2023-01-05T05:14:21;9.37;;;1.97;;
3567;SDS011;1798;48.486;9.232;2023-01-05T05:16:48;3.20;;;2.10;;
3567;SDS011;1798;48.486;9.232;2023-01-05T05:19:16;3.33;;;2.17;;
3567;SDS011;1798;48.486;9.232;2023-01-05T05:21:43;3.70;;;2.30;;
3567;SDS011;1798;48.486;9.232;2023-01-05T05:24:09;5.00;;;2.20;;
3567;SDS011;1798;48.486;9.232;2023-01-05T05:26:36;3.40;;;2.10;;
3567;SDS011;1798;48.486;9.232;2023-01-05T05:29:03;3.30;;;1.80;;
3567;SDS011;1798;48.486;9.232;2023-01-05T05:31:30;3.00;;;1.93;;
3567;SDS011;1798;48.486;9.232;2023-01-05T05:33:56;5.00;;;2.23;;
3567;SDS011;1798;48.486;9.232;2023-01-05T05:36:28;3.30;;;2.20;;
3567;SDS011;1798;48.486;9.232;2023-01-05T05:38:55;3.10;;;1.90;;
3567;SDS011;1798;48.486;9.232;2023-01-05T05:41:22;3.30;;;2.07;;
3567;SDS011;1798;48.486;9.232;2023-01-05T05:43:49;3.47;;;2.40;;
3567;SDS011;1798;48.486;9.232;2023-01-05T05:46:16;3.10;;;2.07;;
3567;SDS011;1798;48.486;9.232;2023-01-05T05:48:43;3.13;;;2.03;;
3567;SDS011;1798;48.486;9.232;2023-01-05T05:51:10;3.20;;;2.20;;
3567;SDS011;1798;48.486;9.232;2023-01-05T05:53:38;3.87;;;1.70;;
3567;SDS011;1798;48.486;9.232;2023-01-05T05:56:05;3.33;;;2.17;;
3567;SDS011;1798;48.486;9.232;2023-01-05T05:58:32;3.33;;;2.07;;
3567;SDS011;1798;48.486;9.232;2023-01-05T06:00:59;3.00;;;1.90;;
3567;SDS011;1798;48.486;9.232;2023-01-05T06:03:26;3.60;;;2.30;;
3567;SDS011;1798;48.486;9.232;2023-01-05T06:05:52;3.17;;;1.83;;
3567;SDS011;1798;48.486;9.232;2023-01-05T06:08:19;5.23;;;1.93;;
3567;SDS011;1798;48.486;9.232;2023-01-05T06:10:49;3.77;;;2.20;;
3567;SDS011;1798;48.486;9.232;2023-01-05T06:13:16;2.90;;;1.73;;
3567;SDS011;1798;48.486;9.232;2023-01-05T06:15:43;2.90;;;1.60;;
3567;SDS011;1798;48.486;9.232;2023-01-05T06:18:10;6.33;;;2.27;;
3567;SDS011;1798;48.486;9.232;2023-01-05T06:20:37;3.07;;;1.90;;
3567;SDS011;1798;48.486;9.232;2023-01-05T06:23:03;3.10;;;1.80;;
3567;SDS011;1798;48.486;9.232;2023-01-05T06:25:30;3.00;;;1.90;;
3567;SDS011;1798;48.486;9.232;2023-01-05T06:27:59;3.20;;;2.10;;
3567;SDS011;1798;48.486;9.232;2023-01-05T06:30:25;3.40;;;2.33;;
3567;SDS011;1798;48.486;9.232;2023-01-05T06:32:53;3.47;;;2.00;;
3567;SDS011;1798;48.486;9.232;2023-01-05T06:35:19;4.20;;;2.40;;
3567;SDS011;1798;48.486;9.232;2023-01-05T06:37:46;4.57;;;2.27;;
3567;SDS011;1798;48.486;9.232;2023-01-05T06:40:13;3.30;;;2.17;;
3567;SDS011;1798;48.486;9.232;2023-01-05T06:42:40;3.70;;;2.30;;
3567;SDS011;1798;48.486;9.232;2023-01-05T06:45:10;3.30;;;2.30;;
3567;SDS011;1798;48.486;9.232;2023-01-05T06:47:38;3.40;;;1.90;;
3567;SDS011;1798;48.486;9.232;2023-01-05T06:50:05;3.20;;;2.23;;
3567;SDS011;1798;48.486;9.232;2023-01-05T06:52:33;3.10;;;1.90;;
3567;SDS011;1798;48.486;9.232;2023-01-05T06:55:04;3.93;;;2.17;;
3567;SDS011;1798;48.486;9.232;2023-01-05T06:57:33;3.10;;;2.00;;
3567;SDS011;1798;48.486;9.232;2023-01-05T07:00:00;4.50;;;1.93;;
3567;SDS011;1798;48.486;9.232;2023-01-05T07:02:29;5.17;;;2.33;;
3567;SDS011;1798;48.486;9.232;2023-01-05T07:04:56;3.10;;;2.00;;
3567;SDS011;1798;48.486;9.232;2023-01-05T07:07:23;3.50;;;2.10;;
3567;SDS011;1798;48.486;9.232;2023-01-05T07:09:50;3.43;;;2.17;;
3567;SDS011;1798;48.486;9.232;2023-01-05T07:12:17;4.50;;;1.87;;
3567;SDS011;1798;48.486;9.232;2023-01-05T07:14:43;4.30;;;2.90;;
3567;SDS011;1798;48.486;9.232;2023-01-05T07:17:10;3.50;;;2.10;;
3567;SDS011;1798;48.486;9.232;2023-01-05T07:19:39;3.27;;;2.23;;
3567;SDS011;1798;48.486;9.232;2023-01-05T07:22:06;3.23;;;2.00;;
3567;SDS011;1798;48.486;9.232;2023-01-05T07:24:33;3.77;;;1.93;;
3567;SDS011;1798;48.486;9.232;2023-01-05T07:27:00;4.00;;;1.80;;
3567;SDS011;1798;48.486;9.232;2023-01-05T07:29:27;11.80;;;2.50;;
3567;SDS011;1798;48.486;9.232;2023-01-05T07:31:54;3.30;;;2.27;;
3567;SDS011;1798;48.486;9.232;2023-01-05T07:34:20;3.83;;;2.60;;
3567;SDS011;1798;48.486;9.232;2023-01-05T07:36:49;3.50;;;2.20;;
3567;SDS011;1798;48.486;9.232;2023-01-05T07:39:16;3.03;;;1.90;;
3567;SDS011;1798;48.486;9.232;2023-01-05T07:41:43;3.43;;;2.27;;
3567;SDS011;1798;48.486;9.232;2023-01-05T07:44:10;3.53;;;2.20;;
3567;SDS011;1798;48.486;9.232;2023-01-05T07:46:37;3.30;;;1.90;;
3567;SDS011;1798;48.486;9.232;2023-01-05T07:49:04;3.30;;;2.00;;
3567;SDS011;1798;48.486;9.232;2023-01-05T07:51:30;4.47;;;2.57;;
3567;SDS011;1798;48.486;9.232;2023-01-05T07:53:59;3.17;;;1.97;;
3567;SDS011;1798;48.486;9.232;2023-01-05T07:56:25;3.40;;;2.40;;
3567;SDS011;1798;48.486;9.232;2023-01-05T07:58:52;3.97;;;2.40;;
3567;SDS011;1798;48.486;9.232;2023-01-05T08:01:19;5.00;;;2.60;;
3567;SDS011;1798;48.486;9.232;2023-01-05T08:03:46;3.30;;;2.30;;
3567;SDS011;1798;48.486;9.232;2023-01-05T08:06:13;3.47;;;2.27;;
3567;SDS011;1798;48.486;9.232;2023-01-05T08:08:41;3.63;;;2.40;;
3567;SDS011;1798;48.486;9.232;2023-01-05T08:11:10;3.40;;;2.40;;
3567;SDS011;1798;48.486;9.232;2023-01-05T08:13:39;3.90;;;2.63;;
3567;SDS011;1798;48.486;9.232;2023-01-05T08:16:23;3.27;;;2.20;;
3567;SDS011;1798;48.486;9.232;2023-01-05T08:18:50;3.33;;;2.20;;
3567;SDS011;1798;48.486;9.232;2023-01-05T08:21:17;3.70;;;2.57;;
3567;SDS011;1798;48.486;9.232;2023-01-05T08:23:44;3.30;;;2.20;;
3567;SDS011;1798;48.486;9.232;2023-01-05T08:26:13;3.93;;;2.57;;
3567;SDS011;1798;48.486;9.232;2023-01-05T08:28:41;4.43;;;2.50;;
3567;SDS011;1798;48.486;9.232;2023-01-05T08:31:09;3.70;;;2.60;;
3567;SDS011;1798;48.486;9.232;2023-01-05T08:33:37;4.93;;;3.17;;
3567;SDS011;1798;48.486;9.232;2023-01-05T08:36:10;4.27;;;2.30;;
3567;SDS011;1798;48.486;9.232;2023-01-05T08:38:38;5.23;;;2.47;;
3567;SDS011;1798;48.486;9.232;2023-01-05T08:41:15;4.70;;;2.70;;
3567;SDS011;1798;48.486;9.232;2023-01-05T08:43:42;3.80;;;2.50;;
3567;SDS011;1798;48.486;9.232;2023-01-05T08:46:09;7.50;;;3.00;;
3567;SDS011;1798;48.486;9.232;2023-01-05T08:48:36;3.43;;;2.30;;
3567;SDS011;1798;48.486;9.232;2023-01-05T08:51:03;4.50;;;2.60;;
3567;SDS011;1798;48.486;9.232;2023-01-05T08:53:31;3.30;;;2.30;;
3567;SDS011;1798;48.486;9.232;2023-01-05T08:55:58;3.30;;;2.43;;
3567;SDS011;1798;48.486;9.232;2023-01-05T08:58:26;4.30;;;2.87;;
3567;SDS011;1798;48.486;9.232;2023-01-05T09:00:53;5.00;;;2.60;;
3567;SDS011;1798;48.486;9.232;2023-01-05T09:03:20;3.77;;;2.60;;
3567;SDS011;1798;48.486;9.232;2023-01-05T09:05:47;4.03;;;2.57;;
3567;SDS011;1798;48.486;9.232;2023-01-05T09:08:14;5.77;;;3.37;;
3567;SDS011;1798;48.486;9.232;2023-01-05T09:10:40;5.00;;;3.50;;
3567;SDS011;1798;48.486;9.232;2023-01-05T09:13:07;3.90;;;2.40;;
3567;SDS011;1798;48.486;9.232;2023-01-05T09:15:37;4.73;;;2.80;;
3567;SDS011;1798;48.486;9.232;2023-01-05T09:18:04;5.60;;;3.97;;
3567;SDS011;1798;48.486;9.232;2023-01-05T09:20:31;3.97;;;2.70;;
3567;SDS011;1798;48.486;9.232;2023-01-05T09:22:57;4.30;;;3.10;;
3567;SDS011;1798;48.486;9.232;2023-01-05T09:25:24;8.90;;;3.10;;
3567;SDS011;1798;48.486;9.232;2023-01-05T09:27:51;6.00;;;3.03;;
3567;SDS011;1798;48.486;9.232;2023-01-05T09:30:18;5.70;;;3.27;;
3567;SDS011;1798;48.486;9.232;2023-01-05T09:32:46;9.63;;;4.30;;
3567;SDS011;1798;48.486;9.232;2023-01-05T09:35:13;3.93;;;2.57;;
3567;SDS011;1798;48.486;9.232;2023-01-05T09:37:39;3.63;;;2.60;;
3567;SDS011;1798;48.486;9.232;2023-01-05T09:40:08;4.20;;;2.80;;
3567;SDS011;1798;48.486;9.232;2023-01-05T09:42:36;5.43;;;2.87;;
3567;SDS011;1798;48.486;9.232;2023-01-05T09:45:09;4.60;;;3.03;;
3567;SDS011;1798;48.486;9.232;2023-01-05T09:47:37;3.40;;;2.20;;
3567;SDS011;1798;48.486;9.232;2023-01-05T09:50:08;3.43;;;2.40;;
3567;SDS011;1798;48.486;9.232;2023-01-05T09:52:44;5.63;;;2.90;;
3567;SDS011;1798;48.486;9.232;2023-01-05T09:55:12;5.27;;;3.27;;
3567;SDS011;1798;48.486;9.232;2023-01-05T09:57:41;11.33;;;3.17;;
3567;SDS011;1798;48.486;9.232;2023-01-05T10:00:09;10.80;;;4.13;;
3567;SDS011;1798;48.486;9.232;2023-01-05T10:02:43;6.20;;;3.70;;
3567;SDS011;1798;48.486;9.232;2023-01-05T10:05:15;4.30;;;3.07;;
3567;SDS011;1798;48.486;9.232;2023-01-05T10:07:43;14.40;;;3.70;;
3567;SDS011;1798;48.486;9.232;2023-01-05T10:10:16;7.60;;;2.70;;
3567;SDS011;1798;48.486;9.232;2023-01-05T10:12:50;5.50;;;3.47;;
3567;SDS011;1798;48.486;9.232;2023-01-05T10:15:33;26.03;;;3.67;;
3567;SDS011;1798;48.486;9.232;2023-01-05T10:18:07;7.20;;;3.20;;
3567;SDS011;1798;48.486;9.232;2023-01-05T10:20:39;7.83;;;3.27;;
3567;SDS011;1798;48.486;9.232;2023-01-05T10:23:13;8.50;;;3.90;;
3567;SDS011;1798;48.486;9.232;2023-01-05T10:25:49;5.63;;;3.60;;
3567;SDS011;1798;48.486;9.232;2023-01-05T10:28:25;7.00;;;4.60;;
3567;SDS011;1798;48.486;9.232;2023-01-05T10:30:56;10.47;;;5.27;;
3567;SDS011;1798;48.486;9.232;2023-01-05T10:33:27;10.50;;;4.10;;
3567;SDS011;1798;48.486;9.232;2023-01-05T10:36:03;7.13;;;3.10;;
3567;SDS011;1798;48.486;9.232;2023-01-05T10:38:40;7.20;;;3.80;;
3567;SDS011;1798;48.486;9.232;2023-01-05T10:41:15;7.80;;;3.90;;
3567;SDS011;1798;48.486;9.232;2023-01-05T10:43:53;9.40;;;4.00;;
3567;SDS011;1798;48.486;9.232;2023-01-05T10:46:28;7.43;;;4.03;;
3567;SDS011;1798;48.486;9.232;2023-01-05T10:48:54;9.63;;;3.80;;
3567;SDS011;1798;48.486;9.232;2023-01-05T10:51:23;9.53;;;3.67;;
3567;SDS011;1798;48.486;9.232;2023-01-05T10:53:50;5.70;;;3.97;;
3567;SDS011;1798;48.486;9.232;2023-01-05T10:56:21;7.63;;;3.30;;
3567;SDS011;1798;48.486;9.232;2023-01-05T10:59:04;8.10;;;4.40;;
3567;SDS011;1798;48.486;9.232;2023-01-05T11:01:32;10.50;;;3.63;;
3567;SDS011;1798;48.486;9.232;2023-01-05T11:04:01;7.10;;;3.43;;
3567;SDS011;1798;48.486;9.232;2023-01-05T11:06:32;9.30;;;4.20;;
3567;SDS011;1798;48.486;9.232;2023-01-05T11:09:04;5.57;;;2.93;;
3567;SDS011;1798;48.486;9.232;2023-01-05T11:11:32;6.00;;;3.37;;
3567;SDS011;1798;48.486;9.232;2023-01-05T11:13:59;6.03;;;3.50;;
3567;SDS011;1798;48.486;9.232;2023-01-05T11:16:27;9.37;;;4.10;;
3567;SDS011;1798;48.486;9.232;2023-01-05T11:18:56;8.03;;;3.60;;
3567;SDS011;1798;48.486;9.232;2023-01-05T11:21:25;4.93;;;3.07;;
3567;SDS011;1798;48.486;9.232;2023-01-05T11:23:56;12.43;;;3.57;;
3567;SDS011;1798;48.486;9.232;2023-01-05T11:26:30;7.17;;;3.53;;
3567;SDS011;1798;48.486;9.232;2023-01-05T11:29:03;6.40;;;3.77;;
3567;SDS011;1798;48.486;9.232;2023-01-05T11:31:37;5.27;;;2.90;;
3567;SDS011;1798;48.486;9.232;2023-01-05T11:34:08;22.30;;;4.70;;
3567;SDS011;1798;48.486;9.232;2023-01-05T11:36:42;8.33;;;3.37;;
3567;SDS011;1798;48.486;9.232;2023-01-05T11:39:19;8.60;;;3.70;;
3567;SDS011;1798;48.486;9.232;2023-01-05T11:41:50;10.30;;;4.03;;
3567;SDS011;1798;48.486;9.232;2023-01-05T11:44:18;7.07;;;3.50;;
3567;SDS011;1798;48.486;9.232;2023-01-05T11:46:47;7.67;;;3.80;;
3567;SDS011;1798;48.486;9.232;2023-01-05T11:49:16;10.40;;;4.80;;
3567;SDS011;1798;48.486;9.232;2023-01-05T11:51:43;19.50;;;4.00;;
3567;SDS011;1798;48.486;9.232;2023-01-05T11:54:25;19.13;;;3.60;;
3567;SDS011;1798;48.486;9.232;2023-01-05T11:57:11;10.73;;;4.07;;
3567;SDS011;1798;48.486;9.232;2023-01-05T11:59:39;15.83;;;3.93;;
3567;SDS011;1798;48.486;9.232;2023-01-05T12:02:13;14.30;;;3.70;;
3567;SDS011;1798;48.486;9.232;2023-01-05T12:05:02;11.00;;;4.20;;
3567;SDS011;1798;48.486;9.232;2023-01-05T12:07:39;12.20;;;4.63;;
3567;SDS011;1798;48.486;9.232;2023-01-05T12:12:56;11.67;;;4.67;;
3567;SDS011;1798;48.486;9.232;2023-01-05T12:15:39;19.33;;;3.60;;
3567;SDS011;1798;48.486;9.232;2023-01-05T12:21:12;13.27;;;6.50;;
3567;SDS011;1798;48.486;9.232;2023-01-05T12:23:49;18.93;;;4.57;;
3567;SDS011;1798;48.486;9.232;2023-01-05T12:26:35;12.33;;;3.40;;
3567;SDS011;1798;48.486;9.232;2023-01-05T12:29:14;6.93;;;3.27;;
3567;SDS011;1798;48.486;9.232;2023-01-05T12:31:52;15.33;;;4.70;;
3567;SDS011;1798;48.486;9.232;2023-01-05T12:34:33;11.00;;;3.67;;
3567;SDS011;1798;48.486;9.232;2023-01-05T12:37:13;12.00;;;4.00;;
3567;SDS011;1798;48.486;9.232;2023-01-05T12:40:06;11.20;;;3.33;;
3567;SDS011;1798;48.486;9.232;2023-01-05T12:42:56;17.30;;;5.43;;
3567;SDS011;1798;48.486;9.232;2023-01-05T12:45:29;23.93;;;4.60;;
3567;SDS011;1798;48.486;9.232;2023-01-05T12:48:07;13.60;;;3.97;;
3567;SDS011;1798;48.486;9.232;2023-01-05T12:50:38;13.63;;;4.23;;
3567;SDS011;1798;48.486;9.232;2023-01-05T12:53:12;9.07;;;3.50;;
3567;SDS011;1798;48.486;9.232;2023-01-05T12:55:44;14.67;;;3.60;;
3567;SDS011;1798;48.486;9.232;2023-01-05T12:58:15;8.83;;;4.10;;
3567;SDS011;1798;48.486;9.232;2023-01-05T13:00:44;9.43;;;3.33;;
3567;SDS011;1798;48.486;9.232;2023-01-05T13:03:16;13.00;;;3.60;;
3567;SDS011;1798;48.486;9.232;2023-01-05T13:05:47;10.10;;;4.03;;
3567;SDS011;1798;48.486;9.232;2023-01-05T13:08:19;12.43;;;3.80;;
3567;SDS011;1798;48.486;9.232;2023-01-05T13:10:51;10.63;;;3.43;;
3567;SDS011;1798;48.486;9.232;2023-01-05T13:13:24;17.00;;;3.90;;
3567;SDS011;1798;48.486;9.232;2023-01-05T13:15:55;13.17;;;4.37;;
3567;SDS011;1798;48.486;9.232;2023-01-05T13:18:24;9.60;;;4.17;;
3567;SDS011;1798;48.486;9.232;2023-01-05T13:20:52;11.63;;;4.07;;
3567;SDS011;1798;48.486;9.232;2023-01-05T13:23:22;9.30;;;3.40;;
3567;SDS011;1798;48.486;9.232;2023-01-05T13:25:52;17.07;;;5.30;;
3567;SDS011;1798;48.486;9.232;2023-01-05T13:28:24;72.47;;;8.20;;
3567;SDS011;1798;48.486;9.232;2023-01-05T13:30:58;30.23;;;7.97;;
3567;SDS011;1798;48.486;9.232;2023-01-05T13:33:52;33.30;;;7.17;;
3567;SDS011;1798;48.486;9.232;2023-01-05T13:36:31;22.37;;;6.63;;
3567;SDS011;1798;48.486;9.232;2023-01-05T13:39:09;30.73;;;6.93;;
3567;SDS011;1798;48.486;9.232;2023-01-05T13:42:01;18.63;;;6.80;;
3567;SDS011;1798;48.486;9.232;2023-01-05T13:45:09;19.20;;;5.30;;
3567;SDS011;1798;48.486;9.232;2023-01-05T13:47:56;15.60;;;5.63;;
3567;SDS011;1798;48.486;9.232;2023-01-05T13:50:37;26.23;;;6.37;;
3567;SDS011;1798;48.486;9.232;2023-01-05T13:53:12;29.70;;;8.37;;
3567;SDS011;1798;48.486;9.232;2023-01-05T13:55:43;24.73;;;6.60;;
3567;SDS011;1798;48.486;9.232;2023-01-05T13:58:31;20.80;;;6.47;;
3567;SDS011;1798;48.486;9.232;2023-01-05T14:01:03;33.37;;;7.83;;
3567;SDS011;1798;48.486;9.232;2023-01-05T14:03:31;35.53;;;7.60;;
3567;SDS011;1798;48.486;9.232;2023-01-05T14:06:01;17.97;;;5.73;;
3567;SDS011;1798;48.486;9.232;2023-01-05T14:08:29;35.33;;;6.80;;
3567;SDS011;1798;48.486;9.232;2023-01-05T14:11:09;18.57;;;5.80;;
3567;SDS011;1798;48.486;9.232;2023-01-05T14:13:42;28.43;;;7.40;;
3567;SDS011;1798;48.486;9.232;2023-01-05T14:19:24;21.50;;;6.77;;
3567;SDS011;1798;48.486;9.232;2023-01-05T14:28:17;20.03;;;4.40;;
3567;SDS011;1798;48.486;9.232;2023-01-05T14:34:13;18.43;;;6.83;;
3567;SDS011;1798;48.486;9.232;2023-01-05T14:36:45;18.33;;;4.80;;
3567;SDS011;1798;48.486;9.232;2023-01-05T14:39:22;21.77;;;5.10;;
3567;SDS011;1798;48.486;9.232;2023-01-05T14:41:56;13.77;;;6.53;;
3567;SDS011;1798;48.486;9.232;2023-01-05T14:44:26;48.10;;;8.10;;
3567;SDS011;1798;48.486;9.232;2023-01-05T14:46:55;29.30;;;6.83;;
3567;SDS011;1798;48.486;9.232;2023-01-05T14:49:25;20.17;;;7.30;;
3567;SDS011;1798;48.486;9.232;2023-01-05T14:51:55;18.43;;;7.43;;
3567;SDS011;1798;48.486;9.232;2023-01-05T14:55:07;26.67;;;5.50;;
3567;SDS011;1798;48.486;9.232;2023-01-05T14:57:48;19.83;;;7.30;;
3567;SDS011;1798;48.486;9.232;2023-01-05T15:00:17;22.13;;;7.30;;
3567;SDS011;1798;48.486;9.232;2023-01-05T15:02:52;18.43;;;6.20;;
3567;SDS011;1798;48.486;9.232;2023-01-05T15:05:22;12.40;;;5.50;;
3567;SDS011;1798;48.486;9.232;2023-01-05T15:07:52;21.30;;;6.73;;
3567;SDS011;1798;48.486;9.232;2023-01-05T15:10:38;20.90;;;6.20;;
3567;SDS011;1798;48.486;9.232;2023-01-05T15:16:48;30.10;;;5.87;;
3567;SDS011;1798;48.486;9.232;2023-01-05T15:19:41;15.10;;;5.37;;
3567;SDS011;1798;48.486;9.232;2023-01-05T15:22:20;26.90;;;5.20;;
3567;SDS011;1798;48.486;9.232;2023-01-05T15:25:00;15.20;;;6.10;;
3567;SDS011;1798;48.486;9.232;2023-01-05T15:27:53;17.80;;;5.67;;
3567;SDS011;1798;48.486;9.232;2023-01-05T15:30:41;28.37;;;7.13;;
3567;SDS011;1798;48.486;9.232;2023-01-05T15:33:26;21.93;;;6.13;;
3567;SDS011;1798;48.486;9.232;2023-01-05T15:36:00;23.03;;;7.87;;
3567;SDS011;1798;48.486;9.232;2023-01-05T15:38:30;22.40;;;7.50;;
3567;SDS011;1798;48.486;9.232;2023-01-05T15:40:58;19.33;;;6.47;;
3567;SDS011;1798;48.486;9.232;2023-01-05T15:43:26;22.57;;;6.13;;
3567;SDS011;1798;48.486;9.232;2023-01-05T15:45:53;14.00;;;5.90;;
3567;SDS011;1798;48.486;9.232;2023-01-05T15:48:25;15.30;;;6.07;;
3567;SDS011;1798;48.486;9.232;2023-01-05T15:50:54;18.40;;;5.67;;
3567;SDS011;1798;48.486;9.232;2023-01-05T15:53:23;17.20;;;6.47;;
3567;SDS011;1798;48.486;9.232;2023-01-05T15:55:53;16.50;;;5.80;;
3567;SDS011;1798;48.486;9.232;2023-01-05T15:58:21;13.13;;;5.87;;
3567;SDS011;1798;48.486;9.232;2023-01-05T16:01:00;15.27;;;6.47;;
3567;SDS011;1798;48.486;9.232;2023-01-05T16:03:28;16.60;;;6.10;;